Time;durP1;ratioP1;P1;durP2;ratioP2;P2;SDS_P1;SDS_P2;PMS_P1;PMS_P2;Temp;Humidity;BMP_temperature;BMP_pressure;BME280_temperature;BME280_humidity;BME280_pressure;Samples;Min_cycle;Max_cycle;Signal;HPM_P1;HPM_P2
2023/06/30 00:02:07;;;;;;;5.43;2.63;;;16.40;99.90;;;;;;5065243;28;20045;-54
2023/06/30 00:04:33;;;;;;;4.65;2.97;;;16.50;99.90;;;;;;5065718;28;20059;-55
2023/06/30 00:06:59;;;;;;;4.88;2.70;;;16.70;99.90;;;;;;5050386;28;20112;-55
2023/06/30 00:09:25;;;;;;;6.22;3.05;;;16.60;99.90;;;;;;5053963;28;20135;-55
2023/06/30 00:11:53;;;;;;;7.05;2.83;;;16.40;99.90;;;;;;5065885;28;20047;-55
2023/06/30 00:14:19;;;;;;;8.15;3.25;;;16.30;99.90;;;;;;5067071;28;20040;-55
2023/06/30 00:16:45;;;;;;;5.70;3.22;;;16.40;99.90;;;;;;5068287;28;20036;-55
2023/06/30 00:19:11;;;;;;;6.47;3.10;;;16.40;99.90;;;;;;5069322;28;20036;-54
2023/06/30 00:21:43;;;;;;;5.38;3.40;;;16.30;99.90;;;;;;5069897;28;20097;-55
2023/06/30 00:24:10;;;;;;;14.15;3.60;;;16.50;99.90;;;;;;5069139;28;20392;-55
2023/06/30 00:26:36;;;;;;;13.20;3.58;;;16.20;99.90;;;;;;5068873;28;20033;-55
2023/06/30 00:29:02;;;;;;;6.97;3.60;;;16.30;99.90;;;;;;5068196;28;20033;-55
2023/06/30 00:31:28;;;;;;;7.43;3.72;;;16.00;99.90;;;;;;5069279;28;20047;-55
2023/06/30 00:33:54;;;;;;;5.65;3.95;;;16.10;99.90;;;;;;5069111;28;20070;-55
2023/06/30 00:36:19;;;;;;;7.72;4.15;;;16.10;99.90;;;;;;5068327;28;20035;-55
2023/06/30 00:38:45;;;;;;;6.40;4.25;;;16.10;99.90;;;;;;5068539;28;20032;-56
2023/06/30 00:41:11;;;;;;;10.18;4.60;;;16.30;99.90;;;;;;5067665;28;20439;-55
2023/06/30 00:43:38;;;;;;;8.73;4.38;;;16.30;99.90;;;;;;5069306;28;20257;-55
2023/06/30 00:46:04;;;;;;;7.63;4.35;;;16.30;99.90;;;;;;5068040;28;20496;-55
2023/06/30 00:48:30;;;;;;;8.13;4.53;;;16.50;99.90;;;;;;5069466;28;20033;-55
2023/06/30 00:50:56;;;;;;;10.27;4.03;;;16.30;99.90;;;;;;5053960;28;20068;-55
2023/06/30 00:53:22;;;;;;;9.02;4.65;;;16.30;99.90;;;;;;5048260;28;20470;-55
2023/06/30 00:55:50;;;;;;;8.88;4.55;;;16.60;99.90;;;;;;5054970;28;20538;-56
2023/06/30 00:58:15;;;;;;;7.85;4.47;;;16.80;99.90;;;;;;5068288;28;20040;-56
2023/06/30 01:00:41;;;;;;;10.50;5.50;;;17.00;99.90;;;;;;5068187;28;20040;-56
2023/06/30 01:03:25;;;;;;;8.02;4.50;;;17.00;99.90;;;;;;5068586;28;20032;-56
2023/06/30 01:06:00;;;;;;;;;;;17.00;99.90;;;;;;5069049;28;20447;-56
2023/06/30 01:08:41;;;;;;;7.28;4.75;;;17.00;99.90;;;;;;5068399;28;19917;-56
2023/06/30 01:11:09;;;;;;;9.25;5.25;;;16.90;99.90;;;;;;5068749;28;20557;-56
2023/06/30 01:13:35;;;;;;;10.95;5.43;;;16.90;99.90;;;;;;5049565;28;20619;-56
2023/06/30 01:16:04;;;;;;;8.43;5.65;;;16.90;99.90;;;;;;5063936;28;20052;-56
2023/06/30 01:18:32;;;;;;;8.30;5.95;;;16.90;99.90;;;;;;5068218;28;20040;-56
2023/06/30 01:20:59;;;;;;;11.10;6.20;;;16.80;99.90;;;;;;5068710;28;20043;-56
2023/06/30 01:23:37;;;;;;;10.13;6.38;;;16.80;99.90;;;;;;5067534;28;20060;-56
2023/06/30 01:26:04;;;;;;;13.10;7.20;;;16.80;99.90;;;;;;5067730;28;20036;-57
2023/06/30 01:28:33;;;;;;;11.85;6.78;;;16.90;99.90;;;;;;5068641;28;20028;-56
2023/06/30 01:30:59;;;;;;;13.88;7.43;;;17.00;99.90;;;;;;5068097;28;20033;-56
2023/06/30 01:33:26;;;;;;;11.75;7.28;;;16.90;99.90;;;;;;5067033;28;20120;-56
2023/06/30 01:35:52;;;;;;;12.00;6.80;;;16.80;99.90;;;;;;5067890;28;20056;-56
2023/06/30 01:38:18;;;;;;;14.73;7.15;;;16.80;99.90;;;;;;5068104;28;20041;-56
2023/06/30 01:40:45;;;;;;;10.38;6.60;;;16.70;99.90;;;;;;5068260;28;20110;-56
2023/06/30 01:43:11;;;;;;;10.15;6.80;;;16.70;99.90;;;;;;5067855;28;20047;-57
2023/06/30 01:45:38;;;;;;;14.27;6.85;;;16.60;99.90;;;;;;5061968;28;20741;-56
2023/06/30 01:48:04;;;;;;;11.35;7.18;;;16.70;99.90;;;;;;5067510;28;20041;-56
2023/06/30 01:50:31;;;;;;;15.90;7.40;;;16.60;99.90;;;;;;5068061;28;20044;-56
2023/06/30 01:52:58;;;;;;;15.90;6.57;;;16.60;99.90;;;;;;5068180;28;20057;-56
2023/06/30 01:55:23;;;;;;;14.90;6.97;;;16.60;99.90;;;;;;5066463;28;20040;-56
2023/06/30 01:57:49;;;;;;;14.45;7.00;;;16.60;99.90;;;;;;5067694;28;20082;-56
2023/06/30 02:00:15;;;;;;;16.55;7.93;;;16.50;99.90;;;;;;5067386;28;20652;-56
2023/06/30 02:02:41;;;;;;;12.07;6.70;;;16.50;99.90;;;;;;5067853;28;20044;-56
2023/06/30 02:05:07;;;;;;;11.00;6.30;;;16.40;99.90;;;;;;5066715;28;20044;-56
2023/06/30 02:07:33;;;;;;;11.88;7.18;;;16.20;99.90;;;;;;5066646;28;20503;-58
2023/06/30 02:09:58;;;;;;;9.73;6.20;;;16.40;99.90;;;;;;5067211;28;20083;-56
2023/06/30 02:12:24;;;;;;;13.55;6.35;;;16.50;99.90;;;;;;5067098;28;20032;-56
2023/06/30 02:14:49;;;;;;;12.85;6.72;;;16.50;99.90;;;;;;5067095;28;20032;-56
2023/06/30 02:17:15;;;;;;;13.65;7.00;;;16.40;99.90;;;;;;5067364;28;20032;-57
2023/06/30 02:19:41;;;;;;;15.93;7.57;;;16.20;99.90;;;;;;5067490;28;20556;-56
2023/06/30 02:22:06;;;;;;;13.30;7.50;;;16.20;99.90;;;;;;5067027;28;20036;-56
2023/06/30 02:24:32;;;;;;;14.05;7.38;;;16.10;99.90;;;;;;5066692;28;20032;-56
2023/06/30 02:26:58;;;;;;;13.60;7.40;;;16.30;99.90;;;;;;5067028;28;20497;-56
2023/06/30 02:29:23;;;;;;;17.13;8.75;;;16.20;99.90;;;;;;5065532;28;20456;-56
2023/06/30 02:31:49;;;;;;;19.60;8.23;;;16.30;99.90;;;;;;5067097;28;20044;-56
2023/06/30 02:34:14;;;;;;;13.85;7.30;;;16.20;99.90;;;;;;5067014;28;20048;-56
2023/06/30 02:36:40;;;;;;;15.05;7.65;;;16.30;99.90;;;;;;5066321;28;20067;-57
2023/06/30 02:39:05;;;;;;;13.38;7.78;;;16.40;99.90;;;;;;5066436;28;20029;-56
2023/06/30 02:41:31;;;;;;;14.65;7.65;;;16.70;99.90;;;;;;5066077;28;20504;-56
2023/06/30 02:43:57;;;;;;;16.60;8.13;;;16.60;99.90;;;;;;5066820;28;20400;-56
2023/06/30 02:46:23;;;;;;;17.25;8.60;;;16.60;99.90;;;;;;5066050;28;20396;-56
2023/06/30 02:48:48;;;;;;;14.32;8.52;;;16.60;99.90;;;;;;5067017;28;20121;-57
2023/06/30 02:51:14;;;;;;;18.98;8.90;;;16.70;99.90;;;;;;5065687;28;20025;-56
2023/06/30 02:53:39;;;;;;;16.63;8.93;;;16.50;99.90;;;;;;5066913;28;20025;-56
2023/06/30 02:56:05;;;;;;;21.50;8.77;;;16.50;99.90;;;;;;5065584;28;20434;-57
2023/06/30 02:58:30;;;;;;;16.23;9.35;;;16.50;99.90;;;;;;5066794;28;20435;-57
2023/06/30 03:00:56;;;;;;;20.17;10.00;;;16.60;99.90;;;;;;5066856;28;20376;-56
2023/06/30 03:03:22;;;;;;;15.05;9.50;;;16.60;99.90;;;;;;5065085;28;20813;-57
2023/06/30 03:05:48;;;;;;;15.88;9.90;;;16.60;99.90;;;;;;5066249;28;20028;-57
2023/06/30 03:08:13;;;;;;;14.75;10.10;;;16.70;99.90;;;;;;5066410;28;20032;-57
2023/06/30 03:10:39;;;;;;;15.07;9.63;;;16.70;99.90;;;;;;5066267;28;20123;-57
2023/06/30 03:13:05;;;;;;;18.40;9.77;;;16.30;99.90;;;;;;5065111;28;20662;-57
2023/06/30 03:15:30;;;;;;;17.85;9.95;;;16.30;99.90;;;;;;5067075;28;20020;-56
2023/06/30 03:17:56;;;;;;;18.48;9.43;;;16.10;99.90;;;;;;5066611;28;20036;-56
2023/06/30 03:20:22;;;;;;;19.27;9.70;;;15.90;99.90;;;;;;5066023;28;20040;-56
2023/06/30 03:22:47;;;;;;;15.05;9.93;;;15.90;99.90;;;;;;5066310;28;20032;-56
2023/06/30 03:25:13;;;;;;;19.00;9.55;;;15.80;99.90;;;;;;5064860;28;20033;-56
2023/06/30 03:27:39;;;;;;;17.63;10.48;;;15.80;99.90;;;;;;5065055;28;20056;-56
2023/06/30 03:30:06;;;;;;;19.65;10.95;;;16.20;99.90;;;;;;5065935;28;20046;-56
2023/06/30 03:32:32;;;;;;;19.00;10.95;;;16.50;99.90;;;;;;5066339;28;20106;-56
2023/06/30 03:34:59;;;;;;;22.70;10.75;;;16.30;99.90;;;;;;5059263;28;20048;-56
2023/06/30 03:37:25;;;;;;;16.75;11.10;;;16.30;99.90;;;;;;5045901;28;20064;-57
2023/06/30 03:39:51;;;;;;;17.27;10.45;;;16.30;99.90;;;;;;5058008;28;20123;-57
2023/06/30 03:42:16;;;;;;;18.27;11.27;;;16.50;99.90;;;;;;5066060;28;20029;-57
2023/06/30 03:44:42;;;;;;;22.08;11.55;;;16.50;99.90;;;;;;5065876;28;20147;-56
2023/06/30 03:47:07;;;;;;;15.75;10.18;;;16.60;99.90;;;;;;5063106;28;20033;-56
2023/06/30 03:49:33;;;;;;;22.80;12.02;;;16.60;99.90;;;;;;5068694;28;20048;-56
2023/06/30 03:51:58;;;;;;;16.80;11.77;;;16.60;99.90;;;;;;5070124;28;20508;-56
2023/06/30 03:54:24;;;;;;;21.83;11.77;;;16.70;99.90;;;;;;5069459;28;20029;-56
2023/06/30 03:56:50;;;;;;;20.58;11.80;;;16.70;99.90;;;;;;5068763;28;20032;-57
2023/06/30 03:59:16;;;;;;;24.02;11.55;;;16.50;99.90;;;;;;5069679;28;20028;-57
2023/06/30 04:01:42;;;;;;;19.80;11.05;;;16.20;99.90;;;;;;5069752;28;20404;-57
2023/06/30 04:04:10;;;;;;;17.90;10.70;;;16.00;99.90;;;;;;5059120;28;20032;-57
2023/06/30 04:06:36;;;;;;;21.42;11.15;;;15.80;99.90;;;;;;5084416;28;20656;-57
2023/06/30 04:09:03;;;;;;;17.67;10.23;;;15.80;99.90;;;;;;5068117;28;20021;-57
2023/06/30 04:11:28;;;;;;;19.83;10.48;;;16.00;99.90;;;;;;5070115;28;20057;-56
2023/06/30 04:13:54;;;;;;;16.35;9.88;;;16.10;99.90;;;;;;5070012;28;20420;-56
2023/06/30 04:16:19;;;;;;;14.65;9.35;;;16.20;99.90;;;;;;5069953;28;20078;-57
2023/06/30 04:18:45;;;;;;;19.42;9.05;;;16.10;99.90;;;;;;5068608;28;20104;-57
2023/06/30 04:21:11;;;;;;;15.15;9.18;;;16.10;99.90;;;;;;5068923;28;20032;-57
2023/06/30 04:23:37;;;;;;;20.50;9.20;;;16.30;99.90;;;;;;5069424;28;20029;-57
2023/06/30 04:26:04;;;;;;;20.38;8.60;;;16.50;99.90;;;;;;5069118;28;20032;-57
2023/06/30 04:28:30;;;;;;;16.75;6.47;;;16.60;99.90;;;;;;5069434;28;20037;-57
2023/06/30 04:30:55;;;;;;;12.23;5.22;;;16.30;99.90;;;;;;5068512;28;20078;-56
2023/06/30 04:33:21;;;;;;;13.07;4.60;;;15.90;99.90;;;;;;5068417;28;20059;-56
2023/06/30 04:35:47;;;;;;;14.77;4.70;;;15.60;99.90;;;;;;5068729;28;20119;-57
2023/06/30 04:38:12;;;;;;;13.60;4.82;;;15.60;99.90;;;;;;5060101;28;20032;-57
2023/06/30 04:40:38;;;;;;;15.15;5.03;;;15.70;99.90;;;;;;5065062;28;20156;-57
2023/06/30 04:43:11;;;;;;;12.88;5.30;;;15.70;99.90;;;;;;5057708;28;20446;-57
2023/06/30 04:45:36;;;;;;;15.85;5.72;;;16.00;99.90;;;;;;5068469;28;20044;-57
2023/06/30 04:48:02;;;;;;;14.48;5.57;;;16.10;99.90;;;;;;5068663;28;20037;-57
2023/06/30 04:50:27;;;;;;;13.20;6.13;;;16.40;99.90;;;;;;5069068;28;20040;-57
2023/06/30 04:52:53;;;;;;;15.50;6.30;;;16.70;99.90;;;;;;5068049;28;20028;-57
2023/06/30 04:55:19;;;;;;;11.90;6.63;;;16.40;99.90;;;;;;5067859;28;20064;-56
2023/06/30 04:57:44;;;;;;;15.93;6.70;;;16.30;99.90;;;;;;5069020;28;20025;-57
2023/06/30 05:00:10;;;;;;;18.52;7.18;;;16.10;99.90;;;;;;5067811;28;20073;-57
2023/06/30 05:02:36;;;;;;;17.38;8.57;;;16.00;99.90;;;;;;5067591;28;20036;-57
2023/06/30 05:05:01;;;;;;;18.27;8.23;;;15.90;99.90;;;;;;5068429;27;20914;-57
2023/06/30 05:07:27;;;;;;;24.02;8.85;;;15.70;99.90;;;;;;5068416;28;20032;-57
2023/06/30 05:09:53;;;;;;;16.00;8.63;;;15.80;99.90;;;;;;5068381;28;20119;-57
2023/06/30 05:12:18;;;;;;;19.80;9.32;;;16.20;99.90;;;;;;5068125;28;20032;-56
2023/06/30 05:14:44;;;;;;;23.48;9.70;;;16.50;99.90;;;;;;5067739;28;20028;-57
2023/06/30 05:17:10;;;;;;;15.90;9.57;;;16.60;99.90;;;;;;5069103;28;20060;-57
2023/06/30 05:19:36;;;;;;;26.30;9.60;;;16.70;99.90;;;;;;5068194;28;20502;-57
2023/06/30 05:22:01;;;;;;;16.70;9.38;;;16.40;99.90;;;;;;5068648;28;20040;-57
2023/06/30 05:24:27;;;;;;;22.00;8.77;;;16.50;99.90;;;;;;5066534;28;20112;-57
2023/06/30 05:26:53;;;;;;;24.02;9.25;;;16.40;99.90;;;;;;5067977;28;20039;-57
2023/06/30 05:29:20;;;;;;;17.20;7.60;;;16.40;99.90;;;;;;5067847;28;20033;-56
2023/06/30 05:31:45;;;;;;;19.77;7.80;;;16.20;99.90;;;;;;5068449;28;20033;-57
2023/06/30 05:34:15;;;;;;;16.17;6.97;;;16.30;99.90;;;;;;5067860;28;20037;-56
2023/06/30 05:36:43;;;;;;;18.00;7.35;;;16.30;99.90;;;;;;5055098;28;20171;-57
2023/06/30 05:39:09;;;;;;;15.93;6.60;;;16.40;99.90;;;;;;5053312;28;20029;-57
2023/06/30 05:41:35;;;;;;;19.27;6.70;;;16.30;99.90;;;;;;5067823;28;20039;-57
2023/06/30 05:44:00;;;;;;;20.30;6.93;;;16.30;99.90;;;;;;5067724;28;20823;-57
2023/06/30 05:46:26;;;;;;;15.70;6.10;;;16.30;99.90;;;;;;5064923;28;20523;-57
2023/06/30 05:48:51;;;;;;;19.05;6.70;;;16.20;99.90;;;;;;5066571;28;20025;-57
2023/06/30 05:51:17;;;;;;;16.42;6.82;;;16.30;99.90;;;;;;5067271;28;20064;-57
2023/06/30 05:53:43;;;;;;;14.10;5.45;;;16.20;99.90;;;;;;5067392;28;20032;-57
2023/06/30 05:56:08;;;;;;;11.75;5.15;;;16.10;99.90;;;;;;5066807;28;20039;-59
2023/06/30 05:58:37;;;;;;;8.65;5.55;;;16.10;99.90;;;;;;5066953;28;20037;-57
2023/06/30 06:01:03;;;;;;;16.77;5.55;;;16.30;99.90;;;;;;5067327;28;20029;-57
2023/06/30 06:03:30;;;;;;;13.60;5.38;;;16.60;99.90;;;;;;5067474;28;20089;-57
2023/06/30 06:05:56;;;;;;;12.88;4.85;;;16.70;99.90;;;;;;5067106;28;20795;-57
2023/06/30 06:08:22;;;;;;;12.90;4.80;;;16.60;99.90;;;;;;5065025;28;20120;-57
2023/06/30 06:10:48;;;;;;;12.63;5.00;;;16.80;99.90;;;;;;5065878;28;20135;-57
2023/06/30 06:13:31;;;;;;;13.50;4.40;;;16.60;99.90;;;;;;5065224;28;20032;-57
2023/06/30 06:15:57;;;;;;;18.38;4.72;;;16.30;99.90;;;;;;5067208;28;20441;-57
2023/06/30 06:18:22;;;;;;;12.93;3.95;;;16.50;99.90;;;;;;5066487;28;20123;-57
2023/06/30 06:20:48;;;;;;;14.43;4.55;;;16.40;99.90;;;;;;5066510;28;20466;-57
2023/06/30 06:23:13;;;;;;;10.73;3.88;;;16.30;99.90;;;;;;5066643;28;20447;-57
2023/06/30 06:25:39;;;;;;;12.38;3.53;;;16.40;99.90;;;;;;5066293;28;20547;-57
2023/06/30 06:28:04;;;;;;;10.77;3.85;;;16.40;99.90;;;;;;5067073;28;20814;-58
2023/06/30 06:30:30;;;;;;;10.77;3.60;;;16.60;99.90;;;;;;5066475;28;20044;-57
2023/06/30 06:32:55;;;;;;;10.27;3.63;;;16.60;99.90;;;;;;5066529;28;20086;-57
2023/06/30 06:35:21;;;;;;;11.88;3.75;;;16.70;99.90;;;;;;5066088;28;20036;-57
2023/06/30 06:37:46;;;;;;;10.98;3.03;;;16.80;99.90;;;;;;5066868;28;20036;-57
2023/06/30 06:40:12;;;;;;;11.10;3.05;;;16.60;99.90;;;;;;5066255;28;20042;-57
2023/06/30 06:42:38;;;;;;;8.25;2.70;;;16.50;99.90;;;;;;5066092;28;20052;-57
2023/06/30 06:45:04;;;;;;;13.82;3.22;;;16.60;99.90;;;;;;5065966;28;20089;-58
2023/06/30 06:48:07;;;;;;;9.43;2.83;;;16.60;99.90;;;;;;5066580;28;20451;-57
2023/06/30 06:50:32;;;;;;;11.25;2.90;;;16.60;99.90;;;;;;5066496;28;20403;-57
2023/06/30 06:52:58;;;;;;;10.93;4.38;;;16.60;99.90;;;;;;5060373;28;20115;-57
2023/06/30 06:55:23;;;;;;;10.90;3.30;;;16.60;99.90;;;;;;5047864;28;20032;-57
2023/06/30 06:57:49;;;;;;;7.07;2.33;;;16.70;99.90;;;;;;5066142;28;20071;-57
2023/06/30 07:00:16;;;;;;;8.40;2.30;;;16.90;99.90;;;;;;5065692;28;20496;-57
2023/06/30 07:02:42;;;;;;;9.98;2.42;;;17.20;99.90;;;;;;5066297;28;20045;-58
2023/06/30 07:05:08;;;;;;;6.72;1.90;;;17.20;99.90;;;;;;5049224;28;20089;-57
2023/06/30 07:07:34;;;;;;;9.35;2.50;;;17.00;99.90;;;;;;5046182;28;20037;-58
2023/06/30 07:09:59;;;;;;;6.85;2.05;;;17.00;99.90;;;;;;5059469;28;20033;-58
2023/06/30 07:12:25;;;;;;;6.50;1.92;;;16.90;99.90;;;;;;5065625;28;20605;-57
2023/06/30 07:14:50;;;;;;;10.60;2.35;;;16.80;99.90;;;;;;5060201;28;20037;-57
2023/06/30 07:17:16;;;;;;;8.48;2.53;;;16.90;99.90;;;;;;5066056;28;20090;-57
2023/06/30 07:19:42;;;;;;;8.65;2.67;;;17.00;99.90;;;;;;5065714;28;20044;-57
2023/06/30 07:22:07;;;;;;;4.43;2.05;;;17.00;99.90;;;;;;5065686;28;20484;-57
2023/06/30 07:24:33;;;;;;;7.13;2.08;;;17.00;99.90;;;;;;5065853;28;20040;-57
2023/06/30 07:26:58;;;;;;;6.50;1.80;;;17.10;99.90;;;;;;5065768;28;20458;-57
2023/06/30 07:29:25;;;;;;;8.50;1.90;;;17.10;99.90;;;;;;5065475;28;20055;-57
2023/06/30 07:31:50;;;;;;;10.10;2.10;;;17.30;99.90;;;;;;5065934;28;20089;-57
2023/06/30 07:34:19;;;;;;;11.40;2.70;;;17.40;99.90;;;;;;5065634;28;20123;-58
2023/06/30 07:36:45;;;;;;;8.30;2.17;;;17.50;99.90;;;;;;5061361;28;20125;-57
2023/06/30 07:39:11;;;;;;;8.18;2.13;;;17.60;99.90;;;;;;5051880;28;20033;-58
2023/06/30 07:41:37;;;;;;;6.28;2.30;;;17.80;99.90;;;;;;5066136;28;20025;-57
2023/06/30 07:44:03;;;;;;;8.80;2.47;;;18.00;99.90;;;;;;5065388;28;20071;-58
2023/06/30 07:46:29;;;;;;;7.47;1.63;;;17.90;99.90;;;;;;5065713;28;20167;-57
2023/06/30 07:48:55;;;;;;;19.48;2.10;;;17.80;99.90;;;;;;5065599;28;20037;-57
2023/06/30 07:51:20;;;;;;;8.77;1.60;;;17.90;99.90;;;;;;5065599;28;20043;-57
2023/06/30 07:53:46;;;;;;;6.20;1.30;;;17.90;99.90;;;;;;5082906;28;20037;-58
2023/06/30 07:56:11;;;;;;;2.53;1.10;;;17.80;99.90;;;;;;5065507;28;20124;-57
2023/06/30 07:58:37;;;;;;;6.78;1.60;;;17.90;99.90;;;;;;5061847;28;20098;-57
2023/06/30 08:01:03;;;;;;;5.53;1.58;;;17.90;99.90;;;;;;5053255;28;20036;-58
2023/06/30 08:03:28;;;;;;;6.25;1.40;;;18.10;99.90;;;;;;5065901;28;20750;-57
2023/06/30 08:05:55;;;;;;;6.50;1.42;;;17.90;99.90;;;;;;5065402;28;20056;-57
2023/06/30 08:08:21;;;;;;;6.55;1.30;;;18.00;99.90;;;;;;5065282;28;20096;-58
2023/06/30 08:10:46;;;;;;;5.15;1.45;;;18.20;99.90;;;;;;5065058;28;20135;-57
2023/06/30 08:13:12;;;;;;;4.07;1.27;;;18.10;99.90;;;;;;5065245;28;20055;-57
2023/06/30 08:15:37;;;;;;;6.10;1.50;;;18.00;99.90;;;;;;5065251;28;20036;-57
2023/06/30 08:18:03;;;;;;;8.18;1.50;;;17.90;99.90;;;;;;5065090;28;20111;-58
2023/06/30 08:20:29;;;;;;;9.25;1.42;;;18.10;99.90;;;;;;5064700;28;20024;-57
2023/06/30 08:22:54;;;;;;;6.68;1.52;;;18.20;99.90;;;;;;5065461;28;20036;-57
2023/06/30 08:25:24;;;;;;;5.65;1.50;;;18.40;99.90;;;;;;5064586;28;20036;-57
2023/06/30 08:27:51;;;;;;;5.90;1.70;;;18.30;99.90;;;;;;5065959;28;20302;-57
2023/06/30 08:30:16;;;;;;;5.05;1.52;;;18.40;99.90;;;;;;5064997;28;20484;-58
2023/06/30 08:32:43;;;;;;;4.85;1.38;;;18.40;99.90;;;;;;5064700;28;20044;-57
2023/06/30 08:35:08;;;;;;;5.35;1.60;;;18.40;99.90;;;;;;5066169;28;20551;-57
2023/06/30 08:37:34;;;;;;;5.50;1.42;;;18.40;99.90;;;;;;5069050;28;20116;-57
2023/06/30 08:40:03;;;;;;;5.43;1.30;;;18.50;99.90;;;;;;5062714;28;20032;-57
2023/06/30 08:42:31;;;;;;;1.90;1.00;;;18.50;99.90;;;;;;5064184;28;20082;-57
2023/06/30 08:45:00;;;;;;;5.05;1.30;;;18.60;99.90;;;;;;5061839;28;20495;-57
2023/06/30 08:47:31;;;;;;;7.88;1.67;;;18.60;99.90;;;;;;5067785;28;20048;-57
2023/06/30 08:49:57;;;;;;;4.32;1.38;;;18.50;99.90;;;;;;5069092;28;20068;-57
2023/06/30 08:52:23;;;;;;;3.80;1.70;;;18.70;99.90;;;;;;5068647;28;20037;-57
2023/06/30 08:54:49;;;;;;;3.95;1.33;;;18.80;99.90;;;;;;5067543;28;20035;-57
2023/06/30 08:57:15;;;;;;;4.63;1.20;;;18.80;99.90;;;;;;5068331;28;20484;-57
2023/06/30 08:59:44;;;;;;;6.63;1.38;;;18.90;99.90;;;;;;5068831;28;20404;-57
2023/06/30 09:02:13;;;;;;;5.40;1.48;;;19.00;99.90;;;;;;5068209;28;20393;-57
2023/06/30 09:04:43;;;;;;;3.47;1.38;;;18.80;99.90;;;;;;5067858;28;20488;-57
2023/06/30 09:07:15;;;;;;;5.43;1.40;;;18.80;99.90;;;;;;5068576;28;20082;-57
2023/06/30 09:09:45;;;;;;;5.65;1.98;;;18.80;99.90;;;;;;5068543;28;20438;-57
2023/06/30 09:12:11;;;;;;;3.55;1.20;;;18.70;99.90;;;;;;5068153;28;20081;-57
2023/06/30 09:14:40;;;;;;;7.20;1.83;;;18.70;99.90;;;;;;5068520;28;20033;-57
2023/06/30 09:17:06;;;;;;;5.50;1.63;;;18.90;99.90;;;;;;5068296;28;20052;-56
2023/06/30 09:19:31;;;;;;;4.65;1.50;;;19.00;99.90;;;;;;5068474;28;20024;-57
2023/06/30 09:21:57;;;;;;;4.45;1.60;;;18.90;99.90;;;;;;5068613;28;20036;-57
2023/06/30 09:24:23;;;;;;;5.15;1.25;;;19.00;99.90;;;;;;5067864;28;20485;-57
2023/06/30 09:26:52;;;;;;;3.65;1.48;;;19.10;99.90;;;;;;5067408;28;20044;-57
2023/06/30 09:29:21;;;;;;;5.10;1.40;;;19.20;99.90;;;;;;5067514;28;20135;-57
2023/06/30 09:31:51;;;;;;;3.90;1.40;;;19.40;99.90;;;;;;5068181;28;20036;-57
2023/06/30 09:34:19;;;;;;;6.80;1.65;;;19.60;99.90;;;;;;5067606;28;20032;-57
2023/06/30 09:36:49;;;;;;;6.18;1.40;;;19.60;99.90;;;;;;5068035;28;20037;-57
2023/06/30 09:39:15;;;;;;;5.00;1.63;;;19.60;99.90;;;;;;5066408;28;20037;-57
2023/06/30 09:41:48;;;;;;;4.05;1.67;;;19.70;99.90;;;;;;5065545;28;20066;-58
2023/06/30 09:44:25;;;;;;;5.22;1.50;;;19.70;99.90;;;;;;5063600;28;20024;-57
2023/06/30 09:46:52;;;;;;;6.57;1.40;;;19.80;99.90;;;;;;5066959;28;20040;-57
2023/06/30 09:49:32;;;;;;;4.38;1.67;;;20.10;99.90;;;;;;5065405;28;20060;-57
2023/06/30 09:51:59;;;;;;;5.57;1.50;;;20.10;99.90;;;;;;5059827;28;20025;-57
2023/06/30 09:54:25;;;;;;;5.05;1.67;;;20.20;99.90;;;;;;5046947;28;20037;-56
2023/06/30 09:56:58;;;;;;;3.97;1.33;;;20.20;99.90;;;;;;5062209;28;20032;-57
2023/06/30 09:59:24;;;;;;;2.40;1.20;;;20.10;99.90;;;;;;5067576;28;20477;-57
2023/06/30 10:01:53;;;;;;;4.57;1.60;;;20.20;99.90;;;;;;5067318;28;20203;-56
2023/06/30 10:04:18;;;;;;;5.63;1.60;;;19.90;99.90;;;;;;5066360;28;20661;-56
2023/06/30 10:06:46;;;;;;;4.60;1.65;;;19.90;99.90;;;;;;5067265;28;20044;-56
2023/06/30 10:09:13;;;;;;;4.85;1.60;;;20.00;99.90;;;;;;5067013;28;20451;-57
2023/06/30 10:11:40;;;;;;;2.83;1.70;;;20.40;99.90;;;;;;5067401;28;20024;-57
2023/06/30 10:14:06;;;;;;;6.50;1.88;;;20.50;99.90;;;;;;5058606;28;20223;-57
2023/06/30 10:16:32;;;;;;;4.57;1.40;;;20.20;99.90;;;;;;5060732;28;20507;-57
2023/06/30 10:19:00;;;;;;;3.05;1.40;;;20.40;99.90;;;;;;5067043;28;20028;-57
2023/06/30 10:21:26;;;;;;;3.42;1.50;;;20.60;99.90;;;;;;5066578;28;20542;-57
2023/06/30 10:23:52;;;;;;;5.78;1.98;;;20.30;99.90;;;;;;5067024;28;20039;-57
2023/06/30 10:26:21;;;;;;;5.40;1.90;;;20.40;99.90;;;;;;5046797;28;20101;-56
2023/06/30 10:28:47;;;;;;;6.15;1.80;;;20.40;99.90;;;;;;5047012;28;20099;-57
2023/06/30 10:31:13;;;;;;;5.32;1.73;;;20.50;99.90;;;;;;5055870;28;20530;-57
2023/06/30 10:33:39;;;;;;;5.32;1.85;;;20.30;99.90;;;;;;5066661;28;20032;-58
2023/06/30 10:36:06;;;;;;;4.60;1.92;;;20.10;99.90;;;;;;5065493;28;20105;-57
2023/06/30 10:38:31;;;;;;;4.00;1.45;;;20.40;99.90;;;;;;5067308;28;20036;-57
2023/06/30 10:41:24;;;;;;;5.18;1.83;;;20.30;99.90;;;;;;5065441;28;20039;-57
2023/06/30 10:44:06;;;;;;;3.50;1.35;;;20.40;99.90;;;;;;5064174;28;20059;-56
2023/06/30 10:46:48;;;;;;;7.15;1.70;;;21.20;99.90;;;;;;5065638;28;20132;-57
2023/06/30 10:49:25;;;;;;;6.68;1.42;;;21.40;99.90;;;;;;5047049;28;20029;-57
2023/06/30 10:51:52;;;;;;;5.93;1.65;;;21.60;99.90;;;;;;5066534;28;20033;-56
2023/06/30 10:54:36;;;;;;;4.32;1.75;;;21.40;99.90;;;;;;5065875;28;20078;-56
2023/06/30 10:57:18;;;;;;;4.63;1.88;;;21.20;99.90;;;;;;5065859;28;20035;-57
2023/06/30 10:59:46;;;;;;;4.93;1.92;;;20.90;99.90;;;;;;5046775;28;20106;-57
2023/06/30 11:02:17;;;;;;;6.18;2.17;;;20.90;99.90;;;;;;5063467;28;20037;-57
2023/06/30 11:04:44;;;;;;;5.25;1.88;;;21.10;99.90;;;;;;5065710;28;20119;-57
2023/06/30 11:07:15;;;;;;;4.32;1.67;;;20.90;99.90;;;;;;5065981;28;20060;-57
2023/06/30 11:09:47;;;;;;;7.10;2.00;;;21.20;99.90;;;;;;5065659;28;20032;-57
2023/06/30 11:12:15;;;;;;;6.22;2.15;;;21.10;99.90;;;;;;5065408;28;20050;-56
2023/06/30 11:14:57;;;;;;;3.15;1.52;;;21.10;99.90;;;;;;5066022;28;20032;-57
2023/06/30 11:17:25;;;;;;;9.95;2.17;;;21.30;99.90;;;;;;5064648;28;20032;-56
2023/06/30 11:20:10;;;;;;;4.40;2.13;;;21.40;99.90;;;;;;5065750;28;20028;-57
2023/06/30 11:22:36;;;;;;;4.93;2.00;;;21.50;99.90;;;;;;5066033;28;20047;-57
2023/06/30 11:25:05;;;;;;;4.78;1.90;;;21.70;99.90;;;;;;5062861;28;20692;-56
2023/06/30 11:27:32;;;;;;;4.55;1.67;;;21.70;99.90;;;;;;5065856;28;20094;-57
2023/06/30 11:29:59;;;;;;;5.82;1.90;;;21.30;99.90;;;;;;5066105;28;20051;-57
2023/06/30 11:32:29;;;;;;;4.22;1.63;;;21.10;99.90;;;;;;5047027;28;20110;-56
2023/06/30 11:34:56;;;;;;;4.80;1.73;;;21.10;99.90;;;;;;5045543;28;20500;-56
2023/06/30 11:37:22;;;;;;;5.43;1.85;;;21.10;99.90;;;;;;5045846;28;20059;-57
2023/06/30 11:39:52;;;;;;;3.72;1.70;;;21.20;99.90;;;;;;5056960;28;20029;-56
2023/06/30 11:42:21;;;;;;;5.25;1.55;;;21.30;99.90;;;;;;5064838;28;20033;-57
2023/06/30 11:44:51;;;;;;;7.60;1.70;;;21.40;99.90;;;;;;5065834;28;20037;-57
2023/06/30 11:47:17;;;;;;;6.75;1.90;;;21.00;99.90;;;;;;5065203;28;20761;-56
2023/06/30 11:49:44;;;;;;;7.45;1.70;;;20.90;99.90;;;;;;5064994;28;20497;-57
2023/06/30 11:52:10;;;;;;;7.22;2.13;;;21.20;99.90;;;;;;5064752;28;20500;-57
2023/06/30 11:54:36;;;;;;;5.15;2.03;;;21.20;99.90;;;;;;5065539;28;20103;-57
2023/06/30 11:57:03;;;;;;;5.72;1.65;;;21.00;99.90;;;;;;5065515;28;20366;-57
2023/06/30 11:59:30;;;;;;;5.53;1.63;;;21.00;99.90;;;;;;5066222;28;20028;-57
2023/06/30 12:01:56;;;;;;;5.72;2.10;;;21.00;99.90;;;;;;5065855;28;20040;-56
2023/06/30 12:04:21;;;;;;;5.25;1.73;;;21.00;99.90;;;;;;5064203;28;20090;-56
2023/06/30 12:06:54;;;;;;;4.57;1.50;;;21.20;99.90;;;;;;5065687;28;20051;-56
2023/06/30 12:09:19;;;;;;;6.82;1.60;;;20.90;99.90;;;;;;5065571;28;20070;-57
2023/06/30 12:11:45;;;;;;;6.50;1.80;;;21.30;99.90;;;;;;5070049;28;20115;-57
2023/06/30 12:14:15;;;;;;;4.35;1.40;;;21.20;99.90;;;;;;5068916;28;20457;-57
2023/06/30 12:16:45;;;;;;;7.00;1.73;;;21.40;99.90;;;;;;5064329;28;20555;-57
2023/06/30 12:19:11;;;;;;;5.78;1.70;;;21.50;99.90;;;;;;5068893;28;20025;-57
2023/06/30 12:21:50;;;;;;;5.22;1.55;;;21.90;99.90;;;;;;5069383;28;20553;-57
2023/06/30 12:24:21;;;;;;;4.28;1.73;;;22.10;99.90;;;;;;5068868;28;20025;-57
2023/06/30 12:26:48;;;;;;;6.22;1.70;;;21.90;99.90;;;;;;5068536;28;20044;-56
2023/06/30 12:29:17;;;;;;;5.68;1.67;;;21.90;99.90;;;;;;5067904;28;20078;-57
2023/06/30 12:31:44;;;;;;;3.42;1.30;;;21.70;99.90;;;;;;5063878;28;20071;-56
2023/06/30 12:34:10;;;;;;;6.13;1.63;;;22.10;99.90;;;;;;5067342;28;20094;-57
2023/06/30 12:36:36;;;;;;;3.40;1.33;;;22.30;99.90;;;;;;5065246;28;20025;-56
2023/06/30 12:39:01;;;;;;;4.95;1.63;;;22.30;99.90;;;;;;5053756;28;20039;-58
2023/06/30 12:41:27;;;;;;;4.65;1.70;;;22.10;99.90;;;;;;5068228;28;20052;-56